Time;durP1;ratioP1;P1;durP2;ratioP2;P2;SDS_P1;SDS_P2;PMS_P1;PMS_P2;Temp;Humidity;BMP_temperature;BMP_pressure;BME280_temperature;BME280_humidity;BME280_pressure;Samples;Min_cycle;Max_cycle;Signal;HPM_P1;HPM_P2
2021/12/15 00:01:34;;;;;;;24.07;11.90;;;9.00;15.10;;;;;;5036499;28;20370;-70
2021/12/15 00:04:00;;;;;;;24.10;11.27;;;9.00;12.50;;;;;;5035534;28;20400;-72
2021/12/15 00:06:26;;;;;;;15.07;11.17;;;9.10;10.50;;;;;;5036235;28;20731;-73
2021/12/15 00:08:56;;;;;;;19.47;11.57;;;9.00;7.80;;;;;;5036514;28;20488;-71
2021/12/15 00:11:26;;;;;;;18.90;10.30;;;9.00;7.80;;;;;;5036141;28;20936;-72
2021/12/15 00:13:54;;;;;;;18.77;12.57;;;9.00;4.40;;;;;;5034167;28;20836;-71
2021/12/15 00:16:20;;;;;;;27.63;10.77;;;9.00;4.10;;;;;;5036334;28;20511;-71
2021/12/15 00:18:46;;;;;;;18.63;11.30;;;9.00;4.30;;;;;;5035199;28;21086;-70
2021/12/15 00:21:14;;;;;;;26.27;12.10;;;9.10;5.60;;;;;;5036118;28;20192;-72
2021/12/15 00:23:41;;;;;;;23.83;12.07;;;9.10;4.30;;;;;;5035242;28;20776;-70
2021/12/15 00:26:07;;;;;;;19.80;12.50;;;9.10;3.70;;;;;;5035931;28;20390;-71
2021/12/15 00:28:34;;;;;;;21.97;11.70;;;9.10;4.40;;;;;;5036039;28;20402;-72
2021/12/15 00:31:00;;;;;;;17.97;10.07;;;9.10;4.30;;;;;;5036100;28;20521;-71
2021/12/15 00:33:26;;;;;;;17.73;11.57;;;9.10;3.40;;;;;;5034977;28;20492;-71
2021/12/15 00:35:52;;;;;;;17.77;11.00;;;9.10;3.40;;;;;;5035162;28;20850;-71
2021/12/15 00:38:17;;;;;;;23.50;14.00;;;9.10;3.80;;;;;;5034147;28;20536;-71
2021/12/15 00:40:43;;;;;;;24.23;12.20;;;9.10;2.00;;;;;;5035721;28;20230;-71
2021/12/15 00:43:09;;;;;;;22.57;13.13;;;9.10;4.80;;;;;;5034883;28;20167;-73
2021/12/15 00:45:35;;;;;;;23.67;13.00;;;9.10;4.20;;;;;;5035606;28;20210;-73
2021/12/15 00:48:02;;;;;;;17.77;10.80;;;9.10;4.40;;;;;;5034303;28;20528;-70
2021/12/15 00:50:32;;;;;;;24.10;12.70;;;9.20;5.30;;;;;;5035583;28;20527;-71
2021/12/15 00:52:59;;;;;;;20.30;11.83;;;9.20;5.80;;;;;;5034694;28;20438;-71
2021/12/15 00:55:26;;;;;;;25.40;11.93;;;9.20;4.40;;;;;;5035097;28;20511;-72
2021/12/15 00:57:52;;;;;;;18.57;11.63;;;9.20;4.50;;;;;;5034851;28;20446;-72
2021/12/15 01:00:26;;;;;;;21.40;12.50;;;9.20;1.70;;;;;;5034332;28;20906;-72
2021/12/15 01:02:53;;;;;;;26.03;11.03;;;9.20;1.70;;;;;;5034634;28;20393;-72
2021/12/15 01:05:23;;;;;;;28.50;12.83;;;9.20;2.90;;;;;;5035240;28;20405;-72
2021/12/15 01:07:49;;;;;;;25.67;13.00;;;9.20;2.80;;;;;;5035090;28;20462;-73
2021/12/15 01:10:25;;;;;;;26.30;11.27;;;9.20;3.50;;;;;;5035323;28;20405;-72
2021/12/15 01:21:05;;;;;;;18.70;10.43;;;9.20;3.60;;;;;;5035348;28;20405;-73
2021/12/15 01:23:32;;;;;;;20.23;13.17;;;9.20;5.70;;;;;;5031211;28;20487;-71
2021/12/15 01:26:12;;;;;;;16.60;12.07;;;9.20;5.20;;;;;;5034563;28;20535;-72
2021/12/15 01:28:38;;;;;;;16.40;9.93;;;9.20;5.30;;;;;;5032726;28;20439;-71
2021/12/15 01:31:05;;;;;;;24.53;13.53;;;9.20;4.70;;;;;;5033590;28;20464;-73
2021/12/15 01:33:32;;;;;;;19.17;12.53;;;9.30;5.70;;;;;;5033392;28;20401;-72
2021/12/15 01:36:00;;;;;;;19.57;11.83;;;9.30;4.40;;;;;;5033552;28;20459;-72
2021/12/15 01:38:30;;;;;;;21.37;12.77;;;9.20;2.30;;;;;;5034658;28;20459;-72
2021/12/15 01:40:57;;;;;;;21.27;9.77;;;9.20;4.60;;;;;;5033400;28;20783;-71
2021/12/15 01:46:53;;;;;;;27.40;13.30;;;9.30;4.90;;;;;;5033767;28;20407;-72
2021/12/15 01:49:14;;;;;;;22.03;12.50;;;9.30;4.20;;;;;;5034297;28;20671;-71
2021/12/15 01:51:40;;;;;;;16.23;10.60;;;9.30;3.20;;;;;;5032506;28;20447;-72
2021/12/15 01:54:06;;;;;;;27.87;12.50;;;9.30;4.10;;;;;;5031417;28;20429;-73
2021/12/15 01:56:32;;;;;;;18.73;10.40;;;9.30;4.40;;;;;;5033233;28;20526;-70
2021/12/15 01:58:59;;;;;;;22.17;12.37;;;9.30;2.40;;;;;;5033070;28;20494;-72
2021/12/15 02:01:28;;;;;;;20.27;12.90;;;9.30;3.60;;;;;;5034278;28;20398;-71
2021/12/15 02:03:55;;;;;;;25.30;13.00;;;9.30;3.20;;;;;;5031713;28;20437;-72
2021/12/15 02:06:21;;;;;;;21.53;11.40;;;9.30;3.00;;;;;;5032933;28;20766;-72
2021/12/15 02:08:48;;;;;;;28.17;15.17;;;9.30;2.60;;;;;;5032433;28;20440;-71
2021/12/15 02:11:14;;;;;;;25.83;12.93;;;9.30;2.60;;;;;;5033691;28;20180;-72
2021/12/15 02:13:40;;;;;;;18.77;12.90;;;9.30;3.20;;;;;;5032060;28;20439;-72
2021/12/15 02:16:07;;;;;;;26.23;13.67;;;9.30;3.70;;;;;;5032750;28;20442;-70
2021/12/15 02:18:44;;;;;;;18.93;12.37;;;9.30;4.40;;;;;;5033753;28;20796;-72
2021/12/15 02:21:22;;;;;;;27.10;12.90;;;9.30;5.40;;;;;;5032822;28;20463;-71
2021/12/15 02:23:53;;;;;;;27.50;12.20;;;9.40;6.50;;;;;;5030846;28;20445;-74
2021/12/15 02:26:23;;;;;;;20.20;11.10;;;9.40;6.50;;;;;;5032631;28;20453;-72
2021/12/15 02:28:55;;;;;;;22.23;13.10;;;9.40;5.50;;;;;;5032925;28;20467;-72
2021/12/15 02:39:14;;;;;;;21.90;11.10;;;9.30;5.50;;;;;;5033473;28;20453;-72
2021/12/15 02:41:41;;;;;;;16.13;11.23;;;9.40;8.00;;;;;;5032738;28;20430;-71
2021/12/15 02:44:14;;;;;;;18.77;12.17;;;9.40;8.10;;;;;;5030525;28;20941;-71
2021/12/15 02:46:40;;;;;;;19.80;11.10;;;9.40;8.10;;;;;;5030295;28;20451;-71
2021/12/15 02:49:09;;;;;;;21.47;12.27;;;9.40;5.40;;;;;;5030717;28;20874;-72
2021/12/15 02:51:37;;;;;;;20.93;11.80;;;9.40;6.20;;;;;;5033432;28;20520;-71
2021/12/15 02:54:04;;;;;;;16.97;9.97;;;9.40;5.50;;;;;;5029148;28;20809;-70
2021/12/15 02:56:30;;;;;;;21.80;11.83;;;9.40;6.10;;;;;;5032897;28;20442;-72
2021/12/15 02:59:03;;;;;;;22.17;10.53;;;9.40;6.20;;;;;;5031805;28;20803;-72
2021/12/15 03:01:59;;;;;;;16.87;9.77;;;9.40;5.90;;;;;;5033239;28;20281;-71
2021/12/15 03:07:18;;;;;;;17.77;9.07;;;9.40;6.90;;;;;;5033071;28;20413;-71
2021/12/15 03:18:06;;;;;;;17.63;8.87;;;9.40;8.10;;;;;;5030954;28;20498;-73
2021/12/15 03:20:40;;;;;;;16.57;8.67;;;9.40;8.10;;;;;;5032949;28;20421;-71
2021/12/15 03:23:08;;;;;;;14.13;9.00;;;9.50;8.20;;;;;;5027306;28;20436;-73
2021/12/15 03:25:34;;;;;;;15.73;9.40;;;9.50;8.20;;;;;;5031729;28;20470;-70
2021/12/15 03:33:39;;;;;;;16.50;9.03;;;9.40;15.10;;;;;;5031105;28;20451;-71
2021/12/15 03:36:12;;;;;;;17.23;9.70;;;9.40;20.20;;;;;;5032774;28;20965;-71
2021/12/15 03:38:39;;;;;;;13.07;9.00;;;9.40;25.90;;;;;;5031294;28;20467;-74
2021/12/15 03:41:09;;;;;;;14.33;9.40;;;9.40;32.10;;;;;;5030289;28;20449;-72
2021/12/15 03:43:36;;;;;;;16.10;8.27;;;9.40;39.00;;;;;;5031958;28;20408;-71
2021/12/15 03:46:07;;;;;;;10.37;7.27;;;9.50;44.50;;;;;;5031404;28;20542;-73
2021/12/15 03:48:38;;;;;;;16.40;8.47;;;9.50;46.50;;;;;;5032698;28;20426;-71
2021/12/15 03:51:04;;;;;;;14.10;8.50;;;9.50;46.50;;;;;;5031479;28;20594;-73
2021/12/15 03:53:30;;;;;;;17.07;8.30;;;9.50;46.50;;;;;;5029658;28;20466;-72
2021/12/15 03:55:57;;;;;;;10.10;6.73;;;9.50;50.50;;;;;;5031821;28;20471;-72
2021/12/15 03:58:24;;;;;;;15.73;9.10;;;9.50;50.70;;;;;;5030180;28;20498;-73
2021/12/15 04:01:04;;;;;;;14.13;9.03;;;9.60;48.80;;;;;;5032701;28;20405;-72
2021/12/15 04:03:34;;;;;;;14.00;7.73;;;9.60;50.10;;;;;;5029718;28;20938;-72
2021/12/15 04:06:02;;;;;;;14.00;7.87;;;9.60;48.20;;;;;;5031155;28;20450;-72
2021/12/15 04:08:29;;;;;;;12.20;8.63;;;9.60;49.90;;;;;;5031508;28;20476;-71
2021/12/15 04:10:56;;;;;;;14.40;7.90;;;9.60;50.40;;;;;;5032668;28;20441;-72
2021/12/15 04:13:22;;;;;;;19.67;9.00;;;9.60;50.50;;;;;;5027936;28;20429;-71
2021/12/15 04:16:04;;;;;;;13.93;8.10;;;9.60;51.60;;;;;;5046870;28;20539;-73
2021/12/15 04:18:31;;;;;;;15.07;9.30;;;9.60;52.50;;;;;;5030347;28;20223;-72
2021/12/15 04:20:57;;;;;;;15.67;9.93;;;9.70;54.90;;;;;;5032608;28;20467;-73
2021/12/15 04:23:23;;;;;;;18.63;8.80;;;9.60;60.20;;;;;;5029524;28;21001;-73
2021/12/15 04:25:54;;;;;;;14.30;8.27;;;9.60;60.30;;;;;;5032352;28;20420;-73
2021/12/15 04:28:31;;;;;;;15.30;8.67;;;9.60;68.50;;;;;;5031395;28;20800;-72
2021/12/15 04:31:01;;;;;;;26.30;10.53;;;9.60;72.10;;;;;;5031460;28;20386;-71
2021/12/15 04:33:40;;;;;;;15.27;8.43;;;9.60;77.80;;;;;;5030381;28;20429;-72
2021/12/15 04:36:09;;;;;;;21.60;10.17;;;9.60;79.70;;;;;;5035566;28;20935;-72
2021/12/15 04:38:36;;;;;;;20.13;10.27;;;9.60;84.00;;;;;;5034574;28;20533;-72
2021/12/15 04:41:05;;;;;;;17.93;10.57;;;9.60;84.60;;;;;;5034644;28;20416;-71
2021/12/15 04:43:34;;;;;;;21.00;9.40;;;9.60;87.10;;;;;;5033783;28;20484;-74
2021/12/15 04:46:02;;;;;;;15.00;8.83;;;9.70;89.00;;;;;;5035217;28;20974;-73
2021/12/15 04:48:28;;;;;;;15.77;8.80;;;9.70;89.00;;;;;;5033288;28;20501;-71
2021/12/15 04:50:54;;;;;;;19.17;8.83;;;9.60;88.90;;;;;;5034791;28;20881;-73
2021/12/15 04:53:20;;;;;;;15.37;9.30;;;9.60;90.00;;;;;;5032352;28;20473;-73
2021/12/15 04:55:46;;;;;;;16.47;10.20;;;9.60;90.40;;;;;;5035386;28;20691;-73
2021/12/15 04:58:12;;;;;;;25.40;9.97;;;9.60;91.00;;;;;;5033414;28;20210;-72
2021/12/15 05:00:46;;;;;;;20.00;10.47;;;9.70;91.50;;;;;;5035387;28;20406;-72
2021/12/15 05:03:12;;;;;;;18.27;9.07;;;9.70;91.60;;;;;;5033475;28;20899;-72
2021/12/15 05:05:38;;;;;;;35.97;12.50;;;9.70;92.00;;;;;;5034421;28;20428;-71
2021/12/15 05:08:06;;;;;;;21.93;11.07;;;9.70;91.70;;;;;;5033527;28;20799;-72
2021/12/15 05:10:32;;;;;;;18.43;11.50;;;9.70;92.20;;;;;;5034041;28;20187;-73
2021/12/15 05:12:59;;;;;;;23.00;10.17;;;9.70;92.00;;;;;;5034332;28;20411;-72
2021/12/15 05:15:26;;;;;;;22.97;9.60;;;9.70;92.30;;;;;;5033888;28;21044;-73
2021/12/15 05:17:52;;;;;;;20.93;9.73;;;9.70;92.40;;;;;;5034947;28;20508;-72
2021/12/15 05:20:19;;;;;;;23.07;9.27;;;9.70;93.00;;;;;;5033222;28;20430;-75
2021/12/15 05:22:45;;;;;;;19.10;10.77;;;9.70;93.50;;;;;;5032207;28;20942;-72
2021/12/15 05:25:11;;;;;;;25.80;12.43;;;9.70;93.80;;;;;;5033205;28;20437;-70
2021/12/15 05:27:38;;;;;;;24.63;11.50;;;9.60;93.70;;;;;;5034550;28;20892;-73
2021/12/15 05:30:06;;;;;;;27.97;13.20;;;9.70;95.00;;;;;;5031736;28;20905;-70
2021/12/15 05:32:32;;;;;;;21.70;11.97;;;9.70;95.50;;;;;;5031644;28;20417;-72
2021/12/15 05:34:59;;;;;;;28.40;12.90;;;9.70;95.50;;;;;;5032773;28;20402;-71
2021/12/15 05:37:27;;;;;;;29.60;12.27;;;9.70;96.10;;;;;;5034097;28;20202;-72
2021/12/15 05:39:54;;;;;;;31.50;13.47;;;9.70;96.30;;;;;;5033287;28;20440;-71
2021/12/15 05:42:20;;;;;;;21.30;10.17;;;9.70;97.30;;;;;;5033917;28;20422;-70
2021/12/15 05:44:48;;;;;;;16.47;10.50;;;9.70;97.40;;;;;;5033692;28;20432;-70
2021/12/15 05:47:15;;;;;;;33.53;12.07;;;9.70;97.40;;;;;;5031412;28;20854;-72
2021/12/15 05:49:41;;;;;;;21.20;12.10;;;9.70;97.40;;;;;;5034507;28;20451;-74
2021/12/15 05:52:08;;;;;;;31.20;12.80;;;9.70;97.90;;;;;;5031646;28;20417;-73
2021/12/15 05:54:34;;;;;;;23.07;12.60;;;9.70;98.30;;;;;;5034460;28;20424;-73
2021/12/15 05:57:01;;;;;;;35.33;11.73;;;9.80;98.80;;;;;;5033408;28;20437;-75
2021/12/15 05:59:27;;;;;;;23.20;11.00;;;9.80;98.90;;;;;;5014524;28;20455;-74
2021/12/15 06:01:53;;;;;;;23.83;12.83;;;9.90;99.20;;;;;;5028155;28;20514;-72
2021/12/15 06:04:20;;;;;;;27.53;13.33;;;9.90;99.30;;;;;;5033304;28;20821;-73
2021/12/15 06:06:46;;;;;;;25.57;13.23;;;9.90;98.80;;;;;;5032409;28;20461;-72
2021/12/15 06:09:13;;;;;;;28.93;14.13;;;9.90;98.60;;;;;;5030649;28;20433;-72
2021/12/15 06:11:40;;;;;;;29.07;12.60;;;9.90;98.20;;;;;;5031089;28;20926;-72
2021/12/15 06:14:07;;;;;;;26.47;13.40;;;9.90;97.80;;;;;;5031601;28;20795;-74
2021/12/15 06:16:35;;;;;;;24.30;12.80;;;9.90;97.40;;;;;;5028322;28;20486;-72
2021/12/15 06:19:02;;;;;;;28.37;11.97;;;9.90;96.50;;;;;;5034896;28;20507;-72
2021/12/15 06:21:28;;;;;;;23.57;11.93;;;9.90;95.80;;;;;;5030067;28;20417;-71
2021/12/15 06:23:53;;;;;;;25.90;13.73;;;9.90;95.50;;;;;;5025966;28;20487;-71
2021/12/15 06:26:20;;;;;;;30.83;14.17;;;9.90;95.20;;;;;;5030409;28;20581;-75
2021/12/15 06:28:47;;;;;;;23.57;11.83;;;9.90;95.00;;;;;;5031374;28;20187;-72
2021/12/15 06:31:17;;;;;;;29.87;11.47;;;10.00;94.30;;;;;;5020558;28;20417;-71
2021/12/15 06:33:44;;;;;;;27.43;12.87;;;10.00;93.30;;;;;;5031334;28;20441;-73
2021/12/15 06:36:11;;;;;;;21.20;12.73;;;10.10;93.30;;;;;;5025935;28;20450;-73
2021/12/15 06:38:45;;;;;;;20.93;12.37;;;10.10;92.70;;;;;;5029519;28;20606;-74
2021/12/15 06:41:13;;;;;;;21.53;11.97;;;10.10;92.60;;;;;;5024356;28;20431;-76
2021/12/15 06:43:42;;;;;;;26.90;13.20;;;10.10;91.90;;;;;;5031535;28;20425;-71
2021/12/15 06:59:49;;;;;;;19.63;12.20;;;10.10;90.30;;;;;;5032734;28;20474;-70
2021/12/15 07:02:15;;;;;;;22.80;10.93;;;10.10;88.40;;;;;;5032473;28;20409;-73
2021/12/15 07:04:41;;;;;;;23.47;11.70;;;10.10;87.60;;;;;;5033111;28;20424;-71
2021/12/15 07:07:07;;;;;;;19.30;10.13;;;10.00;85.70;;;;;;5032991;28;20426;-71
2021/12/15 07:09:33;;;;;;;25.33;10.67;;;10.00;85.10;;;;;;5033484;28;20205;-71
2021/12/15 07:12:00;;;;;;;19.93;10.37;;;10.10;82.90;;;;;;5032497;28;20529;-76
2021/12/15 07:14:26;;;;;;;21.90;11.13;;;10.10;82.40;;;;;;5031772;28;20410;-72
2021/12/15 07:16:54;;;;;;;24.47;11.33;;;10.10;78.10;;;;;;5047596;28;20452;-71
2021/12/15 07:19:32;;;;;;;15.30;10.90;;;10.10;73.40;;;;;;5032983;28;20234;-72
2021/12/15 07:22:27;;;;;;;20.67;9.73;;;10.10;72.80;;;;;;5032549;28;20429;-76
2021/12/15 07:24:53;;;;;;;21.03;11.27;;;10.10;66.10;;;;;;5031788;28;20449;-71
2021/12/15 07:27:19;;;;;;;13.87;10.33;;;10.10;59.70;;;;;;5032929;28;20461;-73
2021/12/15 07:29:44;;;;;;;20.90;10.03;;;10.10;53.90;;;;;;5032961;28;20266;-74
2021/12/15 07:32:10;;;;;;;29.17;11.37;;;10.10;46.00;;;;;;5032077;28;20178;-73
2021/12/15 07:34:36;;;;;;;16.60;10.37;;;10.10;41.80;;;;;;5032061;28;20174;-72
2021/12/15 07:37:01;;;;;;;20.63;11.10;;;10.10;40.90;;;;;;5032828;28;20196;-74
2021/12/15 07:39:27;;;;;;;19.60;10.50;;;10.20;39.00;;;;;;5032833;28;20226;-73
2021/12/15 07:42:03;;;;;;;24.57;11.57;;;10.20;34.50;;;;;;5032615;28;20488;-71
2021/12/15 07:44:29;;;;;;;28.43;11.33;;;10.20;31.70;;;;;;5032723;28;20162;-74
2021/12/15 07:46:55;;;;;;;22.93;11.80;;;10.20;27.90;;;;;;5032699;28;20431;-71
2021/12/15 07:49:23;;;;;;;16.40;12.10;;;10.10;25.80;;;;;;5032665;28;20174;-72
2021/12/15 07:51:59;;;;;;;25.60;11.03;;;10.10;26.10;;;;;;5032563;28;20401;-74
2021/12/15 07:54:25;;;;;;;19.10;10.80;;;10.10;25.70;;;;;;5031853;28;20404;-73
2021/12/15 07:56:52;;;;;;;19.00;11.37;;;10.10;26.10;;;;;;5047917;28;20444;-73
2021/12/15 07:59:18;;;;;;;22.83;11.73;;;10.20;25.80;;;;;;5032560;28;20464;-71
2021/12/15 08:01:44;;;;;;;18.70;10.90;;;10.20;25.80;;;;;;5032736;28;20421;-72
2021/12/15 08:04:10;;;;;;;18.80;10.83;;;10.20;25.80;;;;;;5031812;28;20383;-73
2021/12/15 08:06:36;;;;;;;22.73;12.03;;;10.20;25.60;;;;;;5031425;28;20435;-70
2021/12/15 08:09:03;;;;;;;19.20;11.27;;;10.20;23.20;;;;;;5032771;28;20416;-73
2021/12/15 08:11:29;;;;;;;22.53;11.93;;;10.20;22.90;;;;;;5036131;28;20236;-74
2021/12/15 08:13:57;;;;;;;24.00;10.27;;;10.20;23.20;;;;;;5034828;28;20870;-71
2021/12/15 08:16:23;;;;;;;21.30;12.03;;;10.20;24.00;;;;;;5036257;28;20221;-71
2021/12/15 08:18:49;;;;;;;18.60;10.87;;;10.20;23.50;;;;;;5036196;28;20424;-73
2021/12/15 08:21:15;;;;;;;23.60;10.97;;;10.20;22.50;;;;;;5035956;28;20419;-72
2021/12/15 08:23:41;;;;;;;24.00;11.10;;;10.20;19.90;;;;;;5035438;28;20175;-73
2021/12/15 08:26:06;;;;;;;21.57;10.53;;;10.20;19.90;;;;;;5036051;28;20187;-73
2021/12/15 08:28:33;;;;;;;13.97;9.70;;;10.20;20.00;;;;;;5036000;28;20376;-73
2021/12/15 08:30:59;;;;;;;22.00;11.00;;;10.20;19.90;;;;;;5035039;28;20178;-71
2021/12/15 08:33:26;;;;;;;17.10;10.40;;;10.20;18.10;;;;;;5033748;28;20792;-71
2021/12/15 08:35:59;;;;;;;17.43;10.17;;;10.30;16.00;;;;;;5035919;28;20407;-74
2021/12/15 08:38:32;;;;;;;20.03;11.20;;;10.30;11.70;;;;;;5035838;28;20827;-73
2021/12/15 08:41:01;;;;;;;18.07;9.70;;;10.30;9.00;;;;;;5034533;28;20468;-72
2021/12/15 08:43:27;;;;;;;24.80;10.90;;;10.30;7.90;;;;;;5034899;28;20407;-73
2021/12/15 08:46:01;;;;;;;21.53;10.93;;;10.30;6.60;;;;;;5035661;28;20418;-71
2021/12/15 08:48:27;;;;;;;24.03;9.70;;;10.30;4.10;;;;;;5034386;28;20415;-74
2021/12/15 08:50:53;;;;;;;13.67;9.87;;;10.30;4.90;;;;;;5034787;28;20915;-72
2021/12/15 08:53:19;;;;;;;15.30;9.50;;;10.30;1.00;;;;;;5034490;28;20417;-72
2021/12/15 08:55:47;;;;;;;20.63;10.50;;;10.30;1.00;;;;;;5035582;28;20425;-74
2021/12/15 08:58:15;;;;;;;16.30;10.03;;;10.30;1.00;;;;;;5035646;28;20449;-71
2021/12/15 09:00:45;;;;;;;14.00;7.90;;;10.40;1.00;;;;;;5035485;28;20398;-71
2021/12/15 09:03:14;;;;;;;17.40;10.63;;;10.30;1.00;;;;;;5034431;28;20986;-73
2021/12/15 09:05:42;;;;;;;15.87;9.40;;;10.40;1.00;;;;;;5035434;28;20468;-70
2021/12/15 09:08:09;;;;;;;14.07;8.40;;;10.30;1.00;;;;;;5034717;28;20409;-71
2021/12/15 09:10:37;;;;;;;17.40;8.77;;;10.30;1.00;;;;;;5034997;28;20372;-72
2021/12/15 09:13:04;;;;;;;15.40;8.60;;;10.30;1.00;;;;;;5034409;28;20393;-72
2021/12/15 09:15:30;;;;;;;14.80;8.70;;;10.30;1.00;;;;;;5035073;28;20441;-73
2021/12/15 09:17:57;;;;;;;12.60;7.37;;;10.40;1.00;;;;;;5035130;28;20457;-71
2021/12/15 09:20:26;;;;;;;16.97;8.47;;;10.40;1.00;;;;;;5034439;28;20401;-72
2021/12/15 09:22:52;;;;;;;13.27;7.87;;;10.40;1.00;;;;;;5033444;28;20459;-70
2021/12/15 09:25:18;;;;;;;25.20;9.13;;;10.50;1.00;;;;;;5033868;28;20402;-70
2021/12/15 09:27:45;;;;;;;13.63;9.27;;;10.50;1.00;;;;;;5034537;28;20417;-74
2021/12/15 09:30:16;;;;;;;14.40;8.70;;;10.50;1.00;;;;;;5034806;28;20394;-71
2021/12/15 09:32:42;;;;;;;12.80;7.27;;;10.60;1.00;;;;;;5033965;28;20436;-71
2021/12/15 09:35:09;;;;;;;18.23;8.80;;;10.60;1.00;;;;;;5034821;28;20398;-73
2021/12/15 09:37:38;;;;;;;15.43;7.80;;;10.50;1.00;;;;;;5034701;28;20379;-73
2021/12/15 09:40:06;;;;;;;11.90;7.23;;;10.50;1.00;;;;;;5034799;28;20443;-71
2021/12/15 09:42:36;;;;;;;9.60;8.10;;;10.60;1.00;;;;;;5033828;28;20459;-73
2021/12/15 09:45:21;;;;;;;14.90;8.70;;;10.70;1.00;;;;;;5034784;28;20455;-73
2021/12/15 09:48:16;;;;;;;16.27;8.23;;;10.70;1.00;;;;;;5034068;28;20409;-74
2021/12/15 10:12:34;;;;;;;15.37;7.60;;;10.90;1.00;;;;;;5033497;28;20461;-72
2021/12/15 10:18:25;;;;;;;12.23;7.57;;;10.80;1.00;;;;;;5033912;28;20495;-72
2021/12/15 10:20:51;;;;;;;14.70;7.43;;;10.90;1.00;;;;;;5033770;28;20440;-71
2021/12/15 10:23:24;;;;;;;11.60;7.03;;;11.00;1.00;;;;;;5033031;28;20394;-72
2021/12/15 10:25:53;;;;;;;17.17;8.10;;;11.00;1.00;;;;;;5033200;28;20512;-72
2021/12/15 10:28:20;;;;;;;16.00;7.90;;;10.90;1.00;;;;;;5033866;28;20429;-73
2021/12/15 10:30:48;;;;;;;14.43;7.93;;;10.90;1.00;;;;;;5033787;28;20403;-70
2021/12/15 10:33:31;;;;;;;9.17;7.67;;;10.90;1.00;;;;;;5032684;28;20918;-72
2021/12/15 10:36:05;;;;;;;13.70;6.33;;;11.00;1.00;;;;;;5033552;28;20433;-73
2021/12/15 10:38:46;;;;;;;9.87;6.60;;;11.00;1.00;;;;;;5032447;28;20452;-73
2021/12/15 10:41:16;;;;;;;12.37;6.93;;;11.00;1.00;;;;;;5033733;28;20426;-74
2021/12/15 10:43:44;;;;;;;14.80;7.77;;;11.00;1.00;;;;;;5032175;28;20744;-72
2021/12/15 10:46:14;;;;;;;12.97;8.80;;;10.90;1.00;;;;;;5033308;28;20408;-71
2021/12/15 10:49:03;;;;;;;13.07;8.67;;;10.90;1.00;;;;;;5033484;28;20495;-73
2021/12/15 10:51:41;;;;;;;10.43;7.13;;;11.00;1.00;;;;;;5032942;28;20427;-74
2021/12/15 10:54:10;;;;;;;12.83;8.50;;;11.00;1.00;;;;;;5032413;28;20745;-75
2021/12/15 10:56:40;;;;;;;10.87;7.00;;;11.00;1.00;;;;;;5033250;28;20441;-72
2021/12/15 10:59:10;;;;;;;10.17;7.27;;;11.00;1.00;;;;;;5032123;28;20541;-70
2021/12/15 11:01:45;;;;;;;14.13;7.10;;;11.00;1.00;;;;;;5032660;28;20373;-70
2021/12/15 11:04:39;;;;;;;14.73;7.97;;;11.00;1.00;;;;;;5032278;28;20398;-71
2021/12/15 11:07:55;;;;;;;13.13;8.30;;;11.00;1.00;;;;;;5033227;28;20426;-70
2021/12/15 11:10:31;;;;;;;13.90;7.67;;;11.00;1.00;;;;;;5031834;28;20393;-71
2021/12/15 11:13:00;;;;;;;11.37;7.10;;;11.00;1.00;;;;;;5032621;28;20437;-75
2021/12/15 11:15:27;;;;;;;13.30;7.67;;;11.00;1.00;;;;;;5033082;28;20393;-73
2021/12/15 11:18:02;;;;;;;11.73;7.80;;;10.90;1.00;;;;;;5032947;28;20804;-73
2021/12/15 11:20:33;;;;;;;8.43;6.30;;;11.00;1.00;;;;;;5032608;28;20734;-71
2021/12/15 11:23:06;;;;;;;14.40;7.40;;;11.10;1.00;;;;;;5032199;28;20785;-74
2021/12/15 11:25:37;;;;;;;11.20;6.23;;;11.00;1.00;;;;;;5031664;28;20842;-74
2021/12/15 11:28:28;;;;;;;7.87;6.50;;;11.00;1.00;;;;;;5033004;28;20402;-72
2021/12/15 11:30:59;;;;;;;18.20;8.20;;;11.00;1.00;;;;;;5032952;28;20740;-74
2021/12/15 11:33:32;;;;;;;21.70;7.90;;;11.00;1.00;;;;;;5032104;28;20402;-74
2021/12/15 11:36:22;;;;;;;10.87;6.90;;;10.90;1.00;;;;;;5032671;28;20829;-75
2021/12/15 11:39:06;;;;;;;11.67;7.10;;;10.90;1.00;;;;;;5032396;28;20496;-74
2021/12/15 11:41:39;;;;;;;7.67;6.23;;;10.80;1.00;;;;;;5032864;28;20406;-74
2021/12/15 11:44:14;;;;;;;12.20;7.53;;;10.80;1.00;;;;;;5032243;28;20452;-75
2021/12/15 11:46:41;;;;;;;13.70;5.50;;;10.80;1.00;;;;;;5036695;28;20421;-72
2021/12/15 11:49:14;;;;;;;13.33;5.87;;;10.80;1.00;;;;;;5036778;28;20415;-73
2021/12/15 11:51:48;;;;;;;13.43;5.83;;;10.80;1.00;;;;;;5036753;28;20438;-71
2021/12/15 11:54:34;;;;;;;6.93;5.50;;;10.80;1.00;;;;;;5035975;28;20398;-74
2021/12/15 11:57:03;;;;;;;9.73;7.30;;;10.80;1.00;;;;;;5036055;28;20425;-74
2021/12/15 11:59:39;;;;;;;8.80;5.60;;;10.70;1.00;;;;;;5036565;28;20519;-73
2021/12/15 12:02:30;;;;;;;11.30;7.20;;;10.70;1.00;;;;;;5035709;28;20428;-75
2021/12/15 12:05:16;;;;;;;13.13;7.50;;;10.60;1.00;;;;;;5036490;28;20444;-72
2021/12/15 12:07:52;;;;;;;15.20;7.67;;;10.60;1.00;;;;;;5036636;28;20405;-72
2021/12/15 12:10:42;;;;;;;8.70;6.30;;;10.60;1.00;;;;;;5036492;28;20895;-73
2021/12/15 12:13:14;;;;;;;18.80;5.63;;;10.60;1.00;;;;;;5035300;28;20418;-74
2021/12/15 12:15:42;;;;;;;10.57;6.73;;;10.50;1.00;;;;;;5035935;28;20422;-74
2021/12/15 12:18:12;;;;;;;13.37;5.80;;;10.50;1.00;;;;;;5036272;28;20461;-74
2021/12/15 12:20:43;;;;;;;7.23;6.60;;;10.40;1.00;;;;;;5036198;28;20462;-73
2021/12/15 12:23:13;;;;;;;6.80;5.83;;;10.40;1.00;;;;;;5035348;28;20869;-75
2021/12/15 12:25:44;;;;;;;7.37;5.57;;;10.30;1.00;;;;;;5036162;28;20406;-74
2021/12/15 12:28:13;;;;;;;9.80;5.50;;;10.20;1.00;;;;;;5036043;28;20408;-74
2021/12/15 12:30:43;;;;;;;5.13;4.73;;;10.10;1.00;;;;;;5036152;28;20408;-73
2021/12/15 12:33:10;;;;;;;5.90;4.90;;;10.10;1.00;;;;;;5034554;28;20455;-74
2021/12/15 12:35:44;;;;;;;7.00;5.60;;;10.10;1.00;;;;;;5035902;28;20424;-71
2021/12/15 12:38:20;;;;;;;11.37;5.27;;;10.10;1.00;;;;;;5035943;28;20464;-72
2021/12/15 12:41:19;;;;;;;9.90;4.27;;;10.10;1.00;;;;;;5035792;28;20410;-72
2021/12/15 12:43:48;;;;;;;8.30;5.70;;;10.10;1.00;;;;;;5034989;28;20441;-72
2021/12/15 12:46:31;;;;;;;6.80;4.90;;;10.00;1.00;;;;;;5035719;28;20435;-73
2021/12/15 12:59:22;;;;;;;10.57;5.87;;;9.90;1.00;;;;;;5013561;28;20576;-71
2021/12/15 13:01:16;;;;;;;10.10;5.13;;;10.00;1.00;;;;;;5013354;28;20418;-74
2021/12/15 13:03:45;;;;;;;9.57;6.57;;;10.00;1.00;;;;;;5030018;28;20909;-72
2021/12/15 13:06:15;;;;;;;8.50;5.63;;;10.00;1.00;;;;;;5035397;28;20433;-72
2021/12/15 13:08:44;;;;;;;7.30;5.10;;;10.00;1.00;;;;;;5033522;28;20414;-72
2021/12/15 13:11:19;;;;;;;6.40;4.53;;;10.00;1.00;;;;;;5035295;28;20414;-75
2021/12/15 13:14:11;;;;;;;12.47;6.20;;;10.00;1.00;;;;;;5034395;28;20383;-73
2021/12/15 13:16:42;;;;;;;5.93;4.60;;;10.00;1.00;;;;;;5035178;28;20507;-73
2021/12/15 13:19:10;;;;;;;10.40;5.90;;;10.00;1.00;;;;;;5035053;28;20460;-73
2021/12/15 13:21:49;;;;;;;6.37;4.90;;;10.00;1.00;;;;;;5035179;28;20449;-72
2021/12/15 13:30:47;;;;;;;6.70;4.80;;;9.90;1.00;;;;;;5034281;28;20402;-74
2021/12/15 13:33:18;;;;;;;6.03;5.00;;;9.90;1.00;;;;;;5033944;28;20403;-73
2021/12/15 13:35:53;;;;;;;5.40;4.60;;;10.00;1.00;;;;;;5034881;28;20922;-75
2021/12/15 13:38:41;;;;;;;8.57;4.97;;;10.00;1.00;;;;;;5033559;28;20431;-73
2021/12/15 13:41:54;;;;;;;10.70;5.17;;;10.00;1.00;;;;;;5034243;28;20415;-74
2021/12/15 13:44:43;;;;;;;4.50;4.10;;;9.90;1.00;;;;;;5031907;28;20780;-74
2021/12/15 13:47:09;;;;;;;3.60;3.23;;;9.90;1.00;;;;;;5034542;28;20442;-73
2021/12/15 13:49:47;;;;;;;5.57;3.87;;;9.80;1.00;;;;;;5034390;28;20448;-72
2021/12/15 13:52:35;;;;;;;7.77;3.80;;;9.80;1.00;;;;;;5033566;28;20544;-73
2021/12/15 13:55:12;;;;;;;6.00;3.80;;;9.80;1.00;;;;;;5034572;28;20402;-73
2021/12/15 13:57:46;;;;;;;8.67;4.40;;;9.80;1.00;;;;;;5034303;28;20414;-75
2021/12/15 14:00:24;;;;;;;5.80;3.63;;;9.80;1.00;;;;;;5034292;28;20935;-75
2021/12/15 14:02:59;;;;;;;8.00;3.37;;;9.80;1.00;;;;;;5032984;28;20384;-72
2021/12/15 14:05:26;;;;;;;15.63;3.97;;;9.70;1.00;;;;;;5034115;28;20492;-73
2021/12/15 14:08:11;;;;;;;4.00;3.63;;;9.70;1.00;;;;;;5033677;28;20870;-71
2021/12/15 14:10:38;;;;;;;5.40;3.43;;;9.80;1.00;;;;;;5034313;28;20813;-75
2021/12/15 14:13:06;;;;;;;2.83;2.60;;;9.70;1.00;;;;;;5033323;28;20442;-74
2021/12/15 14:15:37;;;;;;;3.43;3.13;;;9.70;1.00;;;;;;5033976;28;20780;-73
2021/12/15 14:18:06;;;;;;;4.87;3.40;;;9.70;1.00;;;;;;5033920;28;20447;-72
2021/12/15 14:20:36;;;;;;;6.93;3.20;;;9.70;1.00;;;;;;5032841;28;20399;-73
2021/12/15 14:23:06;;;;;;;3.07;2.80;;;9.70;1.00;;;;;;5032772;28;20401;-75
2021/12/15 14:25:35;;;;;;;6.00;3.90;;;9.70;1.00;;;;;;5033385;28;20524;-73
2021/12/15 14:28:13;;;;;;;6.40;3.37;;;9.60;1.00;;;;;;5033504;28;20483;-73
2021/12/15 14:30:40;;;;;;;3.43;3.13;;;9.60;1.00;;;;;;5033345;28;20411;-72
2021/12/15 14:33:28;;;;;;;3.10;2.90;;;9.60;1.00;;;;;;5032590;28;20491;-73